sensor_id;sensor_type;location;lat;lon;timestamp;P1;durP1;ratioP1;P2;durP2;ratioP2
39078;SDS011;24829;49.208;12.080;2022-11-15T00:00:08;32.45;;;17.65;;
39078;SDS011;24829;49.208;12.080;2022-11-15T00:02:34;30.70;;;17.88;;
39078;SDS011;24829;49.208;12.080;2022-11-15T00:05:00;33.30;;;18.20;;
39078;SDS011;24829;49.208;12.080;2022-11-15T00:07:25;90.72;;;20.75;;
39078;SDS011;24829;49.208;12.080;2022-11-15T00:09:51;28.65;;;18.58;;
39078;SDS011;24829;49.208;12.080;2022-11-15T00:12:17;30.23;;;18.20;;
39078;SDS011;24829;49.208;12.080;2022-11-15T00:14:42;30.67;;;18.10;;
39078;SDS011;24829;49.208;12.080;2022-11-15T00:17:08;42.60;;;22.80;;
39078;SDS011;24829;49.208;12.080;2022-11-15T00:19:33;37.55;;;21.05;;
39078;SDS011;24829;49.208;12.080;2022-11-15T00:21:59;39.95;;;21.52;;
39078;SDS011;24829;49.208;12.080;2022-11-15T00:24:25;41.95;;;21.98;;
39078;SDS011;24829;49.208;12.080;2022-11-15T00:26:51;45.90;;;23.85;;
39078;SDS011;24829;49.208;12.080;2022-11-15T00:29:16;51.80;;;21.67;;
39078;SDS011;24829;49.208;12.080;2022-11-15T00:31:42;197.98;;;26.75;;
39078;SDS011;24829;49.208;12.080;2022-11-15T00:34:08;146.07;;;24.55;;
39078;SDS011;24829;49.208;12.080;2022-11-15T00:36:35;82.05;;;20.48;;
39078;SDS011;24829;49.208;12.080;2022-11-15T00:39:00;57.13;;;21.35;;
39078;SDS011;24829;49.208;12.080;2022-11-15T00:41:30;31.20;;;18.15;;
39078;SDS011;24829;49.208;12.080;2022-11-15T00:43:55;32.80;;;18.92;;
39078;SDS011;24829;49.208;12.080;2022-11-15T00:46:21;33.58;;;19.60;;
39078;SDS011;24829;49.208;12.080;2022-11-15T00:48:46;28.75;;;17.90;;
39078;SDS011;24829;49.208;12.080;2022-11-15T00:51:12;25.48;;;17.10;;
39078;SDS011;24829;49.208;12.080;2022-11-15T00:53:37;29.80;;;17.52;;
39078;SDS011;24829;49.208;12.080;2022-11-15T00:56:03;26.45;;;17.10;;
39078;SDS011;24829;49.208;12.080;2022-11-15T00:58:29;21.92;;;14.00;;
39078;SDS011;24829;49.208;12.080;2022-11-15T01:00:55;24.00;;;15.35;;
39078;SDS011;24829;49.208;12.080;2022-11-15T01:03:20;31.00;;;18.08;;
39078;SDS011;24829;49.208;12.080;2022-11-15T01:05:46;62.97;;;35.70;;
39078;SDS011;24829;49.208;12.080;2022-11-15T01:08:12;56.72;;;32.85;;
39078;SDS011;24829;49.208;12.080;2022-11-15T01:10:39;54.88;;;30.65;;
39078;SDS011;24829;49.208;12.080;2022-11-15T01:13:05;45.20;;;25.00;;
39078;SDS011;24829;49.208;12.080;2022-11-15T01:15:30;64.78;;;35.15;;
39078;SDS011;24829;49.208;12.080;2022-11-15T01:17:56;53.42;;;29.55;;
39078;SDS011;24829;49.208;12.080;2022-11-15T01:20:21;53.13;;;29.25;;
39078;SDS011;24829;49.208;12.080;2022-11-15T01:22:47;63.65;;;35.03;;
39078;SDS011;24829;49.208;12.080;2022-11-15T01:25:12;48.72;;;30.45;;
39078;SDS011;24829;49.208;12.080;2022-11-15T01:27:38;41.88;;;23.60;;
39078;SDS011;24829;49.208;12.080;2022-11-15T01:30:04;37.35;;;22.17;;
39078;SDS011;24829;49.208;12.080;2022-11-15T01:32:30;37.13;;;20.67;;
39078;SDS011;24829;49.208;12.080;2022-11-15T01:34:55;34.67;;;20.45;;
39078;SDS011;24829;49.208;12.080;2022-11-15T01:37:21;68.43;;;21.95;;
39078;SDS011;24829;49.208;12.080;2022-11-15T01:39:46;28.80;;;18.80;;
39078;SDS011;24829;49.208;12.080;2022-11-15T01:42:12;45.55;;;21.67;;
39078;SDS011;24829;49.208;12.080;2022-11-15T01:44:48;121.40;;;22.52;;
39078;SDS011;24829;49.208;12.080;2022-11-15T01:47:17;267.80;;;28.67;;
39078;SDS011;24829;49.208;12.080;2022-11-15T01:49:50;78.88;;;21.40;;
39078;SDS011;24829;49.208;12.080;2022-11-15T01:52:24;141.50;;;22.30;;
39078;SDS011;24829;49.208;12.080;2022-11-15T01:54:53;45.10;;;17.58;;
39078;SDS011;24829;49.208;12.080;2022-11-15T01:57:42;92.70;;;18.42;;
39078;SDS011;24829;49.208;12.080;2022-11-15T02:00:11;155.05;;;24.80;;
39078;SDS011;24829;49.208;12.080;2022-11-15T02:02:38;161.43;;;20.95;;
39078;SDS011;24829;49.208;12.080;2022-11-15T02:05:04;120.28;;;20.38;;
39078;SDS011;24829;49.208;12.080;2022-11-15T02:07:30;80.03;;;21.10;;
39078;SDS011;24829;49.208;12.080;2022-11-15T02:10:02;38.60;;;17.25;;
39078;SDS011;24829;49.208;12.080;2022-11-15T02:12:33;122.13;;;22.95;;
39078;SDS011;24829;49.208;12.080;2022-11-15T02:14:59;95.85;;;22.27;;
39078;SDS011;24829;49.208;12.080;2022-11-15T02:17:31;93.90;;;19.88;;
39078;SDS011;24829;49.208;12.080;2022-11-15T02:28:29;57.80;;;18.90;;
39078;SDS011;24829;49.208;12.080;2022-11-15T02:31:13;96.55;;;20.10;;
39078;SDS011;24829;49.208;12.080;2022-11-15T02:45:22;72.28;;;20.60;;
39078;SDS011;24829;49.208;12.080;2022-11-15T02:47:52;131.35;;;22.90;;
39078;SDS011;24829;49.208;12.080;2022-11-15T02:50:23;117.63;;;23.55;;
39078;SDS011;24829;49.208;12.080;2022-11-15T02:52:51;88.15;;;21.10;;
39078;SDS011;24829;49.208;12.080;2022-11-15T02:55:30;93.05;;;21.65;;
39078;SDS011;24829;49.208;12.080;2022-11-15T03:00:35;52.88;;;18.00;;
39078;SDS011;24829;49.208;12.080;2022-11-15T03:03:16;54.70;;;18.65;;
39078;SDS011;24829;49.208;12.080;2022-11-15T03:05:51;104.05;;;16.45;;
39078;SDS011;24829;49.208;12.080;2022-11-15T03:18:31;40.28;;;14.30;;
39078;SDS011;24829;49.208;12.080;2022-11-15T03:21:03;65.63;;;14.70;;
39078;SDS011;24829;49.208;12.080;2022-11-15T03:23:32;42.80;;;14.02;;
39078;SDS011;24829;49.208;12.080;2022-11-15T03:26:01;88.82;;;16.38;;
39078;SDS011;24829;49.208;12.080;2022-11-15T03:28:33;95.38;;;16.42;;
39078;SDS011;24829;49.208;12.080;2022-11-15T03:31:02;86.60;;;15.35;;
39078;SDS011;24829;49.208;12.080;2022-11-15T03:33:50;134.02;;;16.98;;
39078;SDS011;24829;49.208;12.080;2022-11-15T03:36:18;172.45;;;19.17;;
39078;SDS011;24829;49.208;12.080;2022-11-15T03:38:44;150.85;;;16.38;;
39078;SDS011;24829;49.208;12.080;2022-11-15T03:41:17;135.13;;;18.98;;
39078;SDS011;24829;49.208;12.080;2022-11-15T03:46:31;133.93;;;18.98;;
39078;SDS011;24829;49.208;12.080;2022-11-15T03:49:07;110.25;;;17.65;;
39078;SDS011;24829;49.208;12.080;2022-11-15T03:51:37;163.77;;;19.63;;
39078;SDS011;24829;49.208;12.080;2022-11-15T03:54:05;54.17;;;16.45;;
39078;SDS011;24829;49.208;12.080;2022-11-15T03:56:31;96.80;;;18.55;;
39078;SDS011;24829;49.208;12.080;2022-11-15T03:58:57;110.25;;;19.55;;
39078;SDS011;24829;49.208;12.080;2022-11-15T04:01:22;145.15;;;18.05;;
39078;SDS011;24829;49.208;12.080;2022-11-15T04:03:48;130.90;;;17.67;;
39078;SDS011;24829;49.208;12.080;2022-11-15T04:06:13;139.32;;;17.50;;
39078;SDS011;24829;49.208;12.080;2022-11-15T04:08:39;83.18;;;15.13;;
39078;SDS011;24829;49.208;12.080;2022-11-15T04:11:04;74.75;;;15.52;;
39078;SDS011;24829;49.208;12.080;2022-11-15T04:13:30;89.57;;;16.25;;
39078;SDS011;24829;49.208;12.080;2022-11-15T04:15:55;59.55;;;15.27;;
39078;SDS011;24829;49.208;12.080;2022-11-15T04:18:21;110.25;;;16.05;;
39078;SDS011;24829;49.208;12.080;2022-11-15T04:20:46;85.60;;;14.88;;
39078;SDS011;24829;49.208;12.080;2022-11-15T04:23:30;65.47;;;12.82;;
39078;SDS011;24829;49.208;12.080;2022-11-15T04:26:28;24.27;;;12.50;;
39078;SDS011;24829;49.208;12.080;2022-11-15T04:28:54;38.88;;;12.63;;
39078;SDS011;24829;49.208;12.080;2022-11-15T04:31:38;58.72;;;13.82;;
39078;SDS011;24829;49.208;12.080;2022-11-15T04:34:03;39.30;;;12.85;;
39078;SDS011;24829;49.208;12.080;2022-11-15T04:36:29;53.90;;;12.90;;
39078;SDS011;24829;49.208;12.080;2022-11-15T04:39:13;34.53;;;13.60;;
39078;SDS011;24829;49.208;12.080;2022-11-15T04:41:38;25.38;;;12.18;;
39078;SDS011;24829;49.208;12.080;2022-11-15T04:44:04;38.38;;;13.00;;
39078;SDS011;24829;49.208;12.080;2022-11-15T04:46:30;38.33;;;12.05;;
39078;SDS011;24829;49.208;12.080;2022-11-15T04:48:55;91.15;;;16.20;;
39078;SDS011;24829;49.208;12.080;2022-11-15T04:51:21;68.25;;;15.52;;
39078;SDS011;24829;49.208;12.080;2022-11-15T04:53:46;62.42;;;15.75;;
39078;SDS011;24829;49.208;12.080;2022-11-15T04:56:12;63.55;;;14.98;;
39078;SDS011;24829;49.208;12.080;2022-11-15T04:58:38;77.80;;;15.57;;
39078;SDS011;24829;49.208;12.080;2022-11-15T05:01:07;124.35;;;17.52;;
39078;SDS011;24829;49.208;12.080;2022-11-15T05:03:34;62.53;;;19.25;;
39078;SDS011;24829;49.208;12.080;2022-11-15T05:06:18;85.00;;;17.65;;
39078;SDS011;24829;49.208;12.080;2022-11-15T05:08:44;121.60;;;21.23;;
39078;SDS011;24829;49.208;12.080;2022-11-15T05:11:09;115.10;;;20.33;;
39078;SDS011;24829;49.208;12.080;2022-11-15T05:13:35;44.25;;;19.20;;
39078;SDS011;24829;49.208;12.080;2022-11-15T05:16:00;109.53;;;19.40;;
39078;SDS011;24829;49.208;12.080;2022-11-15T05:18:26;58.67;;;16.83;;
39078;SDS011;24829;49.208;12.080;2022-11-15T05:20:51;142.88;;;19.90;;
39078;SDS011;24829;49.208;12.080;2022-11-15T05:23:17;96.50;;;17.88;;
39078;SDS011;24829;49.208;12.080;2022-11-15T05:25:42;251.57;;;29.02;;
39078;SDS011;24829;49.208;12.080;2022-11-15T05:28:08;140.70;;;23.00;;
39078;SDS011;24829;49.208;12.080;2022-11-15T05:30:34;173.75;;;22.30;;
39078;SDS011;24829;49.208;12.080;2022-11-15T05:32:59;98.75;;;18.40;;
39078;SDS011;24829;49.208;12.080;2022-11-15T05:35:31;112.82;;;18.05;;
39078;SDS011;24829;49.208;12.080;2022-11-15T05:38:05;172.18;;;21.13;;
39078;SDS011;24829;49.208;12.080;2022-11-15T05:40:30;119.28;;;19.98;;
39078;SDS011;24829;49.208;12.080;2022-11-15T05:42:57;91.25;;;17.98;;
39078;SDS011;24829;49.208;12.080;2022-11-15T05:45:25;114.78;;;18.95;;
39078;SDS011;24829;49.208;12.080;2022-11-15T05:47:51;79.05;;;16.88;;
39078;SDS011;24829;49.208;12.080;2022-11-15T05:50:18;84.55;;;16.80;;
39078;SDS011;24829;49.208;12.080;2022-11-15T05:52:44;132.68;;;17.20;;
39078;SDS011;24829;49.208;12.080;2022-11-15T05:55:11;104.15;;;17.80;;
39078;SDS011;24829;49.208;12.080;2022-11-15T05:57:37;64.90;;;17.92;;
39078;SDS011;24829;49.208;12.080;2022-11-15T06:00:03;43.63;;;15.98;;
39078;SDS011;24829;49.208;12.080;2022-11-15T06:02:29;44.65;;;13.82;;
39078;SDS011;24829;49.208;12.080;2022-11-15T06:04:55;51.45;;;16.05;;
39078;SDS011;24829;49.208;12.080;2022-11-15T06:07:20;55.40;;;15.38;;
39078;SDS011;24829;49.208;12.080;2022-11-15T06:09:46;30.20;;;14.30;;
39078;SDS011;24829;49.208;12.080;2022-11-15T06:12:12;48.67;;;13.93;;
39078;SDS011;24829;49.208;12.080;2022-11-15T06:14:38;113.15;;;18.52;;
39078;SDS011;24829;49.208;12.080;2022-11-15T06:17:03;64.85;;;15.95;;
39078;SDS011;24829;49.208;12.080;2022-11-15T06:19:29;48.28;;;14.25;;
39078;SDS011;24829;49.208;12.080;2022-11-15T06:21:58;73.55;;;13.40;;
39078;SDS011;24829;49.208;12.080;2022-11-15T06:24:26;79.57;;;14.25;;
39078;SDS011;24829;49.208;12.080;2022-11-15T06:26:52;156.18;;;20.63;;
39078;SDS011;24829;49.208;12.080;2022-11-15T06:29:18;131.98;;;18.65;;
39078;SDS011;24829;49.208;12.080;2022-11-15T06:31:43;30.92;;;14.75;;
39078;SDS011;24829;49.208;12.080;2022-11-15T06:34:09;74.47;;;15.52;;
39078;SDS011;24829;49.208;12.080;2022-11-15T06:36:35;79.70;;;15.02;;
39078;SDS011;24829;49.208;12.080;2022-11-15T06:39:01;70.40;;;17.58;;
39078;SDS011;24829;49.208;12.080;2022-11-15T06:41:30;33.65;;;14.35;;
39078;SDS011;24829;49.208;12.080;2022-11-15T06:43:56;104.22;;;16.95;;
39078;SDS011;24829;49.208;12.080;2022-11-15T06:46:22;66.07;;;13.48;;
39078;SDS011;24829;49.208;12.080;2022-11-15T06:48:50;34.35;;;13.95;;
39078;SDS011;24829;49.208;12.080;2022-11-15T06:51:16;33.72;;;12.52;;
39078;SDS011;24829;49.208;12.080;2022-11-15T06:53:42;35.03;;;12.15;;
39078;SDS011;24829;49.208;12.080;2022-11-15T06:56:07;99.40;;;12.43;;
39078;SDS011;24829;49.208;12.080;2022-11-15T06:58:34;23.80;;;10.90;;
39078;SDS011;24829;49.208;12.080;2022-11-15T07:01:09;59.03;;;13.13;;
39078;SDS011;24829;49.208;12.080;2022-11-15T07:03:40;44.13;;;12.75;;
39078;SDS011;24829;49.208;12.080;2022-11-15T07:06:07;67.10;;;14.05;;
39078;SDS011;24829;49.208;12.080;2022-11-15T07:08:34;44.08;;;13.30;;
39078;SDS011;24829;49.208;12.080;2022-11-15T07:11:01;176.80;;;20.42;;
39078;SDS011;24829;49.208;12.080;2022-11-15T07:13:29;198.30;;;21.25;;
39078;SDS011;24829;49.208;12.080;2022-11-15T07:15:58;242.98;;;22.67;;
39078;SDS011;24829;49.208;12.080;2022-11-15T07:18:26;245.00;;;22.40;;
39078;SDS011;24829;49.208;12.080;2022-11-15T07:20:52;136.75;;;20.02;;
39078;SDS011;24829;49.208;12.080;2022-11-15T07:23:18;137.52;;;20.15;;
39078;SDS011;24829;49.208;12.080;2022-11-15T07:25:43;84.65;;;18.83;;
39078;SDS011;24829;49.208;12.080;2022-11-15T07:28:09;152.13;;;18.80;;
39078;SDS011;24829;49.208;12.080;2022-11-15T07:30:35;92.85;;;15.27;;
39078;SDS011;24829;49.208;12.080;2022-11-15T07:33:01;226.82;;;29.58;;
39078;SDS011;24829;49.208;12.080;2022-11-15T07:35:28;91.93;;;18.55;;
39078;SDS011;24829;49.208;12.080;2022-11-15T07:40:21;80.35;;;16.63;;
39078;SDS011;24829;49.208;12.080;2022-11-15T07:42:47;261.13;;;22.65;;
39078;SDS011;24829;49.208;12.080;2022-11-15T07:45:19;198.43;;;20.98;;
39078;SDS011;24829;49.208;12.080;2022-11-15T07:47:46;225.95;;;21.55;;
39078;SDS011;24829;49.208;12.080;2022-11-15T07:50:12;251.43;;;22.30;;
39078;SDS011;24829;49.208;12.080;2022-11-15T07:52:38;324.33;;;26.67;;
39078;SDS011;24829;49.208;12.080;2022-11-15T07:55:03;275.38;;;25.70;;
39078;SDS011;24829;49.208;12.080;2022-11-15T07:57:29;169.98;;;21.42;;
39078;SDS011;24829;49.208;12.080;2022-11-15T07:59:55;428.23;;;33.85;;
39078;SDS011;24829;49.208;12.080;2022-11-15T08:02:21;343.08;;;31.10;;
39078;SDS011;24829;49.208;12.080;2022-11-15T08:04:46;92.20;;;19.48;;
39078;SDS011;24829;49.208;12.080;2022-11-15T08:07:12;381.15;;;26.55;;
39078;SDS011;24829;49.208;12.080;2022-11-15T08:09:37;221.00;;;22.20;;
39078;SDS011;24829;49.208;12.080;2022-11-15T08:12:03;77.35;;;15.98;;
39078;SDS011;24829;49.208;12.080;2022-11-15T08:14:29;94.35;;;20.73;;
39078;SDS011;24829;49.208;12.080;2022-11-15T08:16:55;252.75;;;25.88;;
39078;SDS011;24829;49.208;12.080;2022-11-15T08:19:20;226.93;;;27.42;;
39078;SDS011;24829;49.208;12.080;2022-11-15T08:21:46;156.05;;;16.48;;
39078;SDS011;24829;49.208;12.080;2022-11-15T08:24:11;65.35;;;18.38;;
39078;SDS011;24829;49.208;12.080;2022-11-15T08:26:38;25.27;;;11.43;;
39078;SDS011;24829;49.208;12.080;2022-11-15T08:29:04;135.52;;;14.30;;
39078;SDS011;24829;49.208;12.080;2022-11-15T08:31:30;51.25;;;12.45;;
39078;SDS011;24829;49.208;12.080;2022-11-15T08:33:55;53.60;;;12.50;;
39078;SDS011;24829;49.208;12.080;2022-11-15T08:36:21;54.95;;;12.52;;
39078;SDS011;24829;49.208;12.080;2022-11-15T08:38:47;36.80;;;11.05;;
39078;SDS011;24829;49.208;12.080;2022-11-15T08:41:13;117.00;;;11.90;;
39078;SDS011;24829;49.208;12.080;2022-11-15T08:43:48;24.75;;;10.00;;
39078;SDS011;24829;49.208;12.080;2022-11-15T08:46:13;40.75;;;11.13;;
39078;SDS011;24829;49.208;12.080;2022-11-15T08:48:39;14.30;;;9.65;;
39078;SDS011;24829;49.208;12.080;2022-11-15T08:51:05;20.67;;;10.45;;
39078;SDS011;24829;49.208;12.080;2022-11-15T08:53:31;13.35;;;10.30;;
39078;SDS011;24829;49.208;12.080;2022-11-15T08:55:56;12.45;;;9.68;;
39078;SDS011;24829;49.208;12.080;2022-11-15T08:58:22;12.85;;;9.35;;
39078;SDS011;24829;49.208;12.080;2022-11-15T09:00:47;13.38;;;10.25;;
39078;SDS011;24829;49.208;12.080;2022-11-15T09:03:13;13.60;;;10.13;;
39078;SDS011;24829;49.208;12.080;2022-11-15T09:05:38;20.73;;;15.35;;
39078;SDS011;24829;49.208;12.080;2022-11-15T09:08:04;19.30;;;13.88;;
39078;SDS011;24829;49.208;12.080;2022-11-15T09:10:30;76.18;;;17.08;;
39078;SDS011;24829;49.208;12.080;2022-11-15T09:12:58;35.42;;;13.80;;
39078;SDS011;24829;49.208;12.080;2022-11-15T09:15:24;57.60;;;15.18;;
39078;SDS011;24829;49.208;12.080;2022-11-15T09:17:49;73.95;;;17.13;;
39078;SDS011;24829;49.208;12.080;2022-11-15T09:20:15;20.45;;;14.20;;
39078;SDS011;24829;49.208;12.080;2022-11-15T09:22:40;23.55;;;15.07;;
39078;SDS011;24829;49.208;12.080;2022-11-15T09:25:06;25.25;;;15.13;;
39078;SDS011;24829;49.208;12.080;2022-11-15T09:27:32;55.03;;;18.60;;
39078;SDS011;24829;49.208;12.080;2022-11-15T09:29:58;172.32;;;24.00;;
39078;SDS011;24829;49.208;12.080;2022-11-15T09:32:24;137.60;;;22.33;;
39078;SDS011;24829;49.208;12.080;2022-11-15T09:34:53;36.38;;;18.45;;
39078;SDS011;24829;49.208;12.080;2022-11-15T09:37:19;185.88;;;62.58;;
39078;SDS011;24829;49.208;12.080;2022-11-15T09:39:44;101.88;;;40.47;;
39078;SDS011;24829;49.208;12.080;2022-11-15T09:45:22;121.40;;;57.47;;
39078;SDS011;24829;49.208;12.080;2022-11-15T09:50:39;40.92;;;27.42;;
39078;SDS011;24829;49.208;12.080;2022-11-15T09:53:12;24.65;;;16.42;;
39078;SDS011;24829;49.208;12.080;2022-11-15T09:55:46;24.02;;;16.58;;
39078;SDS011;24829;49.208;12.080;2022-11-15T09:58:42;24.08;;;13.98;;
39078;SDS011;24829;49.208;12.080;2022-11-15T10:01:44;25.85;;;15.02;;
39078;SDS011;24829;49.208;12.080;2022-11-15T10:04:10;19.67;;;14.20;;
39078;SDS011;24829;49.208;12.080;2022-11-15T10:06:38;18.38;;;13.10;;
39078;SDS011;24829;49.208;12.080;2022-11-15T10:11:45;17.05;;;12.43;;
39078;SDS011;24829;49.208;12.080;2022-11-15T10:14:15;19.52;;;11.82;;
39078;SDS011;24829;49.208;12.080;2022-11-15T10:24:47;21.80;;;14.35;;
39078;SDS011;24829;49.208;12.080;2022-11-15T10:27:14;19.73;;;13.93;;
39078;SDS011;24829;49.208;12.080;2022-11-15T10:29:44;22.35;;;15.25;;
39078;SDS011;24829;49.208;12.080;2022-11-15T10:32:15;22.48;;;16.80;;
39078;SDS011;24829;49.208;12.080;2022-11-15T10:34:42;23.42;;;15.00;;
39078;SDS011;24829;49.208;12.080;2022-11-15T10:37:08;23.88;;;15.65;;
39078;SDS011;24829;49.208;12.080;2022-11-15T10:39:34;24.15;;;16.75;;
39078;SDS011;24829;49.208;12.080;2022-11-15T10:42:42;23.40;;;16.35;;
39078;SDS011;24829;49.208;12.080;2022-11-15T10:44:52;20.92;;;14.93;;
39078;SDS011;24829;49.208;12.080;2022-11-15T10:47:23;20.55;;;14.10;;
39078;SDS011;24829;49.208;12.080;2022-11-15T10:50:01;21.90;;;14.75;;
39078;SDS011;24829;49.208;12.080;2022-11-15T10:52:32;23.67;;;15.63;;
39078;SDS011;24829;49.208;12.080;2022-11-15T10:55:02;22.05;;;14.65;;
39078;SDS011;24829;49.208;12.080;2022-11-15T10:57:48;65.82;;;34.97;;
39078;SDS011;24829;49.208;12.080;2022-11-15T11:05:26;23.27;;;14.90;;
39078;SDS011;24829;49.208;12.080;2022-11-15T11:07:57;18.52;;;12.10;;
39078;SDS011;24829;49.208;12.080;2022-11-15T11:10:26;19.95;;;13.73;;
39078;SDS011;24829;49.208;12.080;2022-11-15T11:12:52;17.42;;;12.60;;
39078;SDS011;24829;49.208;12.080;2022-11-15T11:15:18;16.45;;;12.18;;
39078;SDS011;24829;49.208;12.080;2022-11-15T11:17:57;17.50;;;11.27;;
39078;SDS011;24829;49.208;12.080;2022-11-15T11:20:38;18.80;;;10.65;;
39078;SDS011;24829;49.208;12.080;2022-11-15T11:26:19;15.52;;;10.82;;
39078;SDS011;24829;49.208;12.080;2022-11-15T11:29:15;16.83;;;11.43;;
39078;SDS011;24829;49.208;12.080;2022-11-15T11:37:41;23.30;;;15.52;;
39078;SDS011;24829;49.208;12.080;2022-11-15T11:48:08;25.85;;;15.43;;
39078;SDS011;24829;49.208;12.080;2022-11-15T11:50:39;24.58;;;15.88;;
39078;SDS011;24829;49.208;12.080;2022-11-15T11:53:26;20.10;;;13.75;;
39078;SDS011;24829;49.208;12.080;2022-11-15T11:55:57;17.92;;;12.32;;
39078;SDS011;24829;49.208;12.080;2022-11-15T12:01:14;17.50;;;12.02;;
39078;SDS011;24829;49.208;12.080;2022-11-15T12:04:10;16.70;;;13.15;;
39078;SDS011;24829;49.208;12.080;2022-11-15T12:06:54;18.45;;;11.68;;
39078;SDS011;24829;49.208;12.080;2022-11-15T12:09:32;16.65;;;11.18;;
39078;SDS011;24829;49.208;12.080;2022-11-15T12:17:27;21.80;;;12.05;;
39078;SDS011;24829;49.208;12.080;2022-11-15T12:20:02;14.13;;;10.43;;
39078;SDS011;24829;49.208;12.080;2022-11-15T12:22:43;15.68;;;10.52;;
39078;SDS011;24829;49.208;12.080;2022-11-15T12:27:51;18.42;;;11.18;;
39078;SDS011;24829;49.208;12.080;2022-11-15T12:30:45;17.80;;;11.80;;
39078;SDS011;24829;49.208;12.080;2022-11-15T12:33:31;17.00;;;10.10;;
39078;SDS011;24829;49.208;12.080;2022-11-15T12:36:03;13.73;;;9.20;;
39078;SDS011;24829;49.208;12.080;2022-11-15T12:38:54;16.10;;;10.43;;
39078;SDS011;24829;49.208;12.080;2022-11-15T12:41:20;17.50;;;10.98;;
39078;SDS011;24829;49.208;12.080;2022-11-15T12:44:10;14.57;;;10.02;;
39078;SDS011;24829;49.208;12.080;2022-11-15T12:49:10;15.63;;;8.15;;
39078;SDS011;24829;49.208;12.080;2022-11-15T12:52:03;13.60;;;7.90;;
39078;SDS011;24829;49.208;12.080;2022-11-15T12:59:47;16.17;;;9.55;;
39078;SDS011;24829;49.208;12.080;2022-11-15T13:02:17;15.30;;;9.02;;
39078;SDS011;24829;49.208;12.080;2022-11-15T13:04:47;16.25;;;9.35;;
39078;SDS011;24829;49.208;12.080;2022-11-15T13:10:47;12.90;;;8.57;;
39078;SDS011;24829;49.208;12.080;2022-11-15T13:18:46;11.98;;;9.68;;
39078;SDS011;24829;49.208;12.080;2022-11-15T13:20:52;14.80;;;9.48;;
39078;SDS011;24829;49.208;12.080;2022-11-15T13:23:18;13.85;;;9.13;;
39078;SDS011;24829;49.208;12.080;2022-11-15T13:25:55;11.15;;;8.73;;
39078;SDS011;24829;49.208;12.080;2022-11-15T13:31:25;11.40;;;9.57;;
39078;SDS011;24829;49.208;12.080;2022-11-15T13:34:03;13.00;;;9.88;;
39078;SDS011;24829;49.208;12.080;2022-11-15T13:36:40;14.88;;;10.82;;
39078;SDS011;24829;49.208;12.080;2022-11-15T13:39:12;14.60;;;10.52;;
39078;SDS011;24829;49.208;12.080;2022-11-15T13:41:51;14.02;;;9.23;;
39078;SDS011;24829;49.208;12.080;2022-11-15T13:44:19;16.67;;;9.90;;
39078;SDS011;24829;49.208;12.080;2022-11-15T13:46:46;13.25;;;9.23;;
39078;SDS011;24829;49.208;12.080;2022-11-15T13:49:12;18.17;;;10.30;;
39078;SDS011;24829;49.208;12.080;2022-11-15T13:56:45;12.82;;;9.50;;
39078;SDS011;24829;49.208;12.080;2022-11-15T13:59:27;17.00;;;11.27;;
39078;SDS011;24829;49.208;12.080;2022-11-15T14:02:01;11.57;;;9.20;;
39078;SDS011;24829;49.208;12.080;2022-11-15T14:04:35;11.60;;;9.57;;
39078;SDS011;24829;49.208;12.080;2022-11-15T14:07:04;14.80;;;8.68;;
39078;SDS011;24829;49.208;12.080;2022-11-15T14:09:38;12.85;;;9.20;;
39078;SDS011;24829;49.208;12.080;2022-11-15T14:12:26;13.05;;;9.38;;
39078;SDS011;24829;49.208;12.080;2022-11-15T14:14:56;13.52;;;9.27;;
39078;SDS011;24829;49.208;12.080;2022-11-15T14:19:54;27.85;;;21.58;;
39078;SDS011;24829;49.208;12.080;2022-11-15T14:22:21;13.02;;;10.10;;
39078;SDS011;24829;49.208;12.080;2022-11-15T14:28:07;15.27;;;9.73;;
39078;SDS011;24829;49.208;12.080;2022-11-15T14:30:42;13.05;;;8.82;;
39078;SDS011;24829;49.208;12.080;2022-11-15T14:35:53;13.57;;;9.77;;
39078;SDS011;24829;49.208;12.080;2022-11-15T14:38:20;11.90;;;8.68;;
39078;SDS011;24829;49.208;12.080;2022-11-15T14:40:46;32.17;;;24.13;;
39078;SDS011;24829;49.208;12.080;2022-11-15T14:43:12;46.35;;;30.52;;
39078;SDS011;24829;49.208;12.080;2022-11-15T14:45:38;21.60;;;13.45;;
39078;SDS011;24829;49.208;12.080;2022-11-15T14:48:05;18.85;;;11.07;;
39078;SDS011;24829;49.208;12.080;2022-11-15T14:50:31;19.50;;;12.18;;
39078;SDS011;24829;49.208;12.080;2022-11-15T14:52:58;23.35;;;15.52;;
39078;SDS011;24829;49.208;12.080;2022-11-15T14:55:28;26.25;;;17.58;;
39078;SDS011;24829;49.208;12.080;2022-11-15T14:58:04;52.10;;;33.85;;
39078;SDS011;24829;49.208;12.080;2022-11-15T15:00:33;33.92;;;21.40;;
39078;SDS011;24829;49.208;12.080;2022-11-15T15:02:59;37.22;;;23.63;;
39078;SDS011;24829;49.208;12.080;2022-11-15T15:05:29;35.17;;;21.45;;
39078;SDS011;24829;49.208;12.080;2022-11-15T15:07:57;57.08;;;33.88;;
39078;SDS011;24829;49.208;12.080;2022-11-15T15:10:23;75.07;;;46.85;;
39078;SDS011;24829;49.208;12.080;2022-11-15T15:12:50;34.22;;;22.20;;
39078;SDS011;24829;49.208;12.080;2022-11-15T15:15:27;98.80;;;58.13;;
39078;SDS011;24829;49.208;12.080;2022-11-15T15:17:59;120.80;;;72.70;;
39078;SDS011;24829;49.208;12.080;2022-11-15T15:20:25;130.85;;;72.38;;
39078;SDS011;24829;49.208;12.080;2022-11-15T15:22:50;30.52;;;16.60;;
39078;SDS011;24829;49.208;12.080;2022-11-15T15:27:48;20.20;;;12.82;;
39078;SDS011;24829;49.208;12.080;2022-11-15T15:30:14;19.50;;;11.93;;
39078;SDS011;24829;49.208;12.080;2022-11-15T15:32:40;24.25;;;13.25;;
39078;SDS011;24829;49.208;12.080;2022-11-15T15:35:05;22.08;;;14.10;;
39078;SDS011;24829;49.208;12.080;2022-11-15T15:37:35;20.85;;;13.02;;
39078;SDS011;24829;49.208;12.080;2022-11-15T15:40:01;20.25;;;13.48;;
39078;SDS011;24829;49.208;12.080;2022-11-15T15:42:26;17.85;;;13.50;;
39078;SDS011;24829;49.208;12.080;2022-11-15T15:44:52;23.85;;;13.65;;
39078;SDS011;24829;49.208;12.080;2022-11-15T15:47:21;19.80;;;13.43;;
39078;SDS011;24829;49.208;12.080;2022-11-15T15:49:48;33.17;;;20.30;;
39078;SDS011;24829;49.208;12.080;2022-11-15T15:52:14;46.58;;;29.35;;
39078;SDS011;24829;49.208;12.080;2022-11-15T15:54:39;33.72;;;22.63;;
39078;SDS011;24829;49.208;12.080;2022-11-15T15:57:06;40.85;;;26.52;;
39078;SDS011;24829;49.208;12.080;2022-11-15T15:59:33;36.15;;;21.33;;
39078;SDS011;24829;49.208;12.080;2022-11-15T16:01:58;30.92;;;19.25;;
39078;SDS011;24829;49.208;12.080;2022-11-15T16:04:24;31.80;;;17.60;;
39078;SDS011;24829;49.208;12.080;2022-11-15T16:06:50;31.25;;;17.83;;
39078;SDS011;24829;49.208;12.080;2022-11-15T16:09:18;37.38;;;27.13;;
39078;SDS011;24829;49.208;12.080;2022-11-15T16:12:07;37.45;;;24.25;;
39078;SDS011;24829;49.208;12.080;2022-11-15T16:14:32;33.92;;;20.70;;
39078;SDS011;24829;49.208;12.080;2022-11-15T16:16:58;28.52;;;19.45;;
39078;SDS011;24829;49.208;12.080;2022-11-15T16:19:24;19.15;;;14.25;;
39078;SDS011;24829;49.208;12.080;2022-11-15T16:21:49;22.98;;;13.15;;